Atlas — WDC2601 — position and weather

sailwx.info

Track history (hours):
 
Tides and Currents Weather Stations Pressure Air Temp Water Temp Dewpoint Dewpoint Depression Visibility Wind Speed Wind Dir Waves Ship Positions

Atlas

Owner: Kirby Inland Marine LP, Houston, TX. More information available from US FCC via Universal Licensing System and Coast Guard Vessel Documentation Center.

Last reported at 2017-Nov-17 18:10 UTC. Time now 2017-Nov-17 20:50 UTC.
Position N 29°44' W 095°07'.

Length 119 m; draft 3.2 m.

Type: . MMSI: 366995460.

Date/timePositionNaut miles runAvg speedWind from/ knotsBaromVisibWave heightAir tempDewpointWater temp
2017-Nov-17 18:10N 29°44' W 095°07'1 3.4
2017-Nov-17 17:44N 29°44' W 095°08'1 3.6
2017-Nov-17 17:30N 29°44' W 095°09'2 3.3
2017-Nov-17 16:58N 29°45' W 095°11'3 2.0
2017-Nov-17 15:22N 29°43' W 095°14'0 0.0
2017-Nov-17 14:59N 29°43' W 095°14'0 0.0
2017-Nov-17 14:30N 29°43' W 095°14'0 0.0
2017-Nov-17 14:00N 29°43' W 095°14'0 0.0
2017-Nov-17 13:30N 29°43' W 095°14'0 0.0
2017-Nov-17 13:00N 29°43' W 095°14'0 0.0
2017-Nov-17 12:30N 29°43' W 095°14'0 0.0
2017-Nov-17 12:00N 29°43' W 095°14'0 0.0
2017-Nov-17 11:30N 29°43' W 095°14'0 0.0
2017-Nov-17 11:00N 29°43' W 095°14'0 0.0
2017-Nov-17 10:30N 29°43' W 095°14'0 0.0
2017-Nov-17 10:00N 29°43' W 095°14'0 0.0
2017-Nov-17 09:24N 29°43' W 095°14'0 0.0
2017-Nov-17 08:55N 29°43' W 095°14'0 0.0
2017-Nov-17 08:25N 29°43' W 095°14'0 0.0
2017-Nov-17 07:59N 29°43' W 095°14'0 0.0
2017-Nov-17 07:29N 29°43' W 095°14'0 0.0
2017-Nov-17 07:00N 29°43' W 095°14'0 0.0
2017-Nov-17 06:30N 29°43' W 095°14'0 0.0
2017-Nov-17 05:59N 29°43' W 095°14'0 0.0
2017-Nov-17 05:30N 29°43' W 095°14'0 0.0
2017-Nov-17 04:59N 29°43' W 095°14'0 0.0
2017-Nov-17 04:30N 29°43' W 095°14'0 0.0
2017-Nov-17 04:00N 29°43' W 095°14'0 0.0
2017-Nov-17 03:30N 29°43' W 095°14'0 0.0
2017-Nov-17 03:00N 29°43' W 095°14'0 0.0
2017-Nov-17 02:29N 29°43' W 095°14'0 0.0
2017-Nov-17 01:15N 29°43' W 095°14'0 0.0
2017-Nov-17 00:58N 29°43' W 095°14'0 0.0
2017-Nov-17 00:30N 29°43' W 095°14'0 0.0
2017-Nov-17 00:00N 29°43' W 095°14'0 0.0
2017-Nov-16 23:30N 29°43' W 095°14'0 0.0
2017-Nov-16 23:00N 29°43' W 095°14'1 1.7
2017-Nov-16 22:27N 29°44' W 095°13'1 2.9
2017-Nov-16 22:00N 29°44' W 095°12'2 2.9
2017-Nov-16 21:28N 29°45' W 095°10'1 3.1
2017-Nov-16 21:00N 29°44' W 095°09'2 3.2
2017-Nov-16 20:27N 29°44' W 095°07'2 3.2
2017-Nov-16 19:58N 29°45' W 095°06'0 0.3
2017-Nov-16 19:20N 29°46' W 095°06'0 0.0
2017-Nov-16 15:23N 29°46' W 095°06'1 2.0
2017-Nov-16 14:42N 29°44' W 095°07'1 3.7
2017-Nov-16 14:26N 29°44' W 095°08'2 3.6
2017-Nov-16 13:54N 29°45' W 095°10'1 3.4
2017-Nov-16 13:30N 29°45' W 095°11'2 3.5
2017-Nov-16 12:57N 29°43' W 095°13'1 2.7
2017-Nov-16 12:28N 29°43' W 095°14'0 0.2
2017-Nov-16 12:00N 29°43' W 095°14'0 0.0
2017-Nov-16 11:28N 29°43' W 095°14'0 0.0
2017-Nov-16 11:00N 29°43' W 095°14'0 0.1
2017-Nov-16 10:30N 29°43' W 095°14'1 2.1
2017-Nov-16 10:00N 29°43' W 095°13'2 3.0
2017-Nov-16 09:28N 29°45' W 095°12'1 3.0
2017-Nov-16 09:00N 29°45' W 095°10'2 3.1
2017-Nov-16 08:28N 29°44' W 095°09'2 3.1
2017-Nov-16 07:59N 29°44' W 095°07'1 3.1
2017-Nov-16 07:31N 29°45' W 095°06'0 0.1
2017-Nov-16 06:55N 29°45' W 095°06'0 0.0
2017-Nov-15 06:50N 29°45' W 095°06'0 0.0
2017-Nov-15 05:05N 29°45' W 095°06'0 0.0
2017-Nov-15 04:56N 29°45' W 095°06'0 0.0
2017-Nov-15 04:24N 29°45' W 095°06'0 0.0
2017-Nov-15 03:58N 29°45' W 095°06'0 0.0
2017-Nov-15 03:28N 29°45' W 095°06'0 0.0
2017-Nov-15 02:58N 29°45' W 095°06'0 0.0
2017-Nov-15 02:26N 29°45' W 095°06'0 0.0
2017-Nov-14 23:54N 29°45' W 095°06'0 0.0
2017-Nov-14 23:31N 29°45' W 095°06'0 0.1
2017-Nov-14 22:56N 29°46' W 095°06'0 0.0
2017-Nov-14 21:02N 29°45' W 095°06'0 0.1
2017-Nov-14 20:49N 29°45' W 095°06'0 1.3
2017-Nov-14 20:27N 29°46' W 095°05'0 0.1
2017-Nov-14 18:58N 29°46' W 095°05'0 0.8
2017-Nov-14 18:24N 29°45' W 095°06'0 0.0
2017-Nov-14 18:00N 29°45' W 095°06'0 0.0
2017-Nov-13 22:20N 29°45' W 095°06'1 0.1
2017-Nov-13 02:00N 29°46' W 095°07'0 0.0
2017-Nov-13 01:28N 29°46' W 095°07'0 0.0
2017-Nov-13 00:51N 29°46' W 095°07'0 0.0
2017-Nov-13 00:29N 29°46' W 095°07'0 0.0
2017-Nov-12 23:07N 29°46' W 095°07'0 0.0
2017-Nov-12 22:57N 29°46' W 095°07'0 0.0
2017-Nov-12 21:06N 29°46' W 095°07'0 1.2
2017-Nov-12 20:57N 29°46' W 095°07'1 2.2
2017-Nov-12 20:30N 29°45' W 095°06'1 1.6
2017-Nov-12 19:47N 29°46' W 095°07'1 1.6
2017-Nov-12 19:17N 29°46' W 095°06'0 1.0
2017-Nov-12 18:53N 29°45' W 095°06'0 0.0
2017-Nov-12 16:40N 29°45' W 095°06'0 0.0
2017-Nov-12 16:27N 29°45' W 095°06'0 0.0
2017-Nov-12 15:46N 29°45' W 095°06'0 0.0
2017-Nov-12 15:27N 29°45' W 095°06'0 0.0
2017-Nov-12 14:56N 29°45' W 095°06'0 0.0
2017-Nov-12 14:29N 29°45' W 095°06'0 0.0
2017-Nov-12 14:00N 29°45' W 095°06'0 0.0
2017-Nov-12 12:45N 29°45' W 095°06'0 0.0
2017-Nov-12 12:30N 29°45' W 095°06'0 0.0
2017-Nov-12 11:37N 29°45' W 095°06'0 0.0
2017-Nov-12 11:27N 29°45' W 095°06'0 0.0
2017-Nov-12 10:59N 29°45' W 095°06'0 0.0
2017-Nov-12 10:30N 29°45' W 095°06'0 0.0
2017-Nov-12 09:47N 29°45' W 095°06'0 0.0
2017-Nov-12 09:27N 29°45' W 095°06'0 0.0
2017-Nov-12 09:00N 29°45' W 095°06'0 0.0
2017-Nov-12 08:21N 29°45' W 095°06'0 0.0
2017-Nov-12 07:43N 29°45' W 095°06'0 0.0
2017-Nov-12 07:30N 29°45' W 095°06'0 0.0
2017-Nov-12 07:00N 29°45' W 095°06'0 0.0
2017-Nov-12 06:31N 29°45' W 095°06'0 0.0
2017-Nov-12 05:59N 29°45' W 095°06'0 0.0
2017-Nov-12 05:30N 29°45' W 095°06'0 0.0
2017-Nov-12 04:59N 29°45' W 095°06'0 0.0
2017-Nov-12 04:30N 29°45' W 095°06'0 0.0
2017-Nov-12 04:00N 29°45' W 095°06'0 0.0
2017-Nov-12 03:30N 29°45' W 095°06'0 0.1
2017-Nov-12 03:00N 29°45' W 095°06'2 4.0
2017-Nov-12 02:30N 29°44' W 095°07'3 5.3
2017-Nov-12 01:59N 29°45' W 095°10'3 5.1
2017-Nov-12 01:28N 29°43' W 095°13'1 2.0
2017-Nov-12 00:54N 29°43' W 095°14'0 0.1
2017-Nov-12 00:30N 29°43' W 095°14'0 0.0
2017-Nov-12 00:00N 29°43' W 095°14'0 0.0
2017-Nov-11 23:30N 29°43' W 095°14'0 0.0
2017-Nov-11 23:01N 29°43' W 095°14'0 0.0
2017-Nov-11 22:30N 29°43' W 095°14'0 0.0
2017-Nov-11 22:00N 29°43' W 095°14'0 0.0
2017-Nov-11 21:30N 29°43' W 095°14'0 0.0
2017-Nov-11 21:00N 29°43' W 095°14'0 0.0
2017-Nov-11 20:30N 29°43' W 095°14'0 0.0
2017-Nov-11 20:01N 29°43' W 095°14'0 0.0
2017-Nov-11 19:30N 29°43' W 095°14'0 0.0
2017-Nov-11 18:59N 29°43' W 095°14'0 0.0
2017-Nov-11 18:30N 29°43' W 095°14'0 0.0
2017-Nov-11 18:00N 29°43' W 095°14'0 0.0
2017-Nov-11 17:30N 29°43' W 095°14'0 0.0
2017-Nov-11 17:00N 29°43' W 095°14'0 0.0
2017-Nov-11 16:30N 29°43' W 095°14'0 0.0
2017-Nov-11 16:01N 29°43' W 095°14'0 0.0
2017-Nov-11 15:30N 29°43' W 095°14'0 0.0
2017-Nov-11 15:00N 29°43' W 095°14'0 0.0
2017-Nov-11 14:29N 29°43' W 095°14'0 0.0
2017-Nov-11 14:00N 29°43' W 095°14'0 0.0
2017-Nov-11 13:30N 29°43' W 095°14'0 0.0
2017-Nov-11 13:00N 29°43' W 095°14'0 0.0
2017-Nov-11 12:30N 29°43' W 095°14'0 0.0
2017-Nov-11 12:00N 29°43' W 095°14'0 0.0
2017-Nov-11 11:30N 29°43' W 095°14'0 0.0
2017-Nov-11 11:00N 29°43' W 095°14'0 0.0
2017-Nov-11 10:30N 29°43' W 095°14'0 0.0
2017-Nov-11 10:00N 29°43' W 095°14'0 0.1
2017-Nov-11 09:30N 29°43' W 095°14'0 0.0
2017-Nov-11 09:00N 29°43' W 095°14'0 0.0
2017-Nov-11 08:30N 29°43' W 095°14'0 0.0
2017-Nov-11 08:00N 29°43' W 095°14'0 0.0
2017-Nov-11 07:31N 29°43' W 095°14'0 0.0
2017-Nov-11 07:00N 29°43' W 095°14'0 0.0
2017-Nov-11 06:30N 29°43' W 095°14'0 0.0
2017-Nov-11 05:58N 29°43' W 095°14'0 0.0
2017-Nov-11 05:30N 29°43' W 095°14'0 0.0
2017-Nov-11 05:00N 29°43' W 095°14'0 0.0
2017-Nov-11 04:30N 29°43' W 095°14'0 0.0
2017-Nov-11 03:57N 29°43' W 095°14'0 0.0
2017-Nov-11 03:30N 29°43' W 095°14'0 0.0
2017-Nov-11 02:56N 29°43' W 095°14'0 0.0
2017-Nov-11 02:30N 29°43' W 095°14'0 0.0
2017-Nov-11 02:00N 29°43' W 095°14'0 0.0
2017-Nov-11 01:29N 29°43' W 095°14'0 0.0
2017-Nov-11 00:59N 29°43' W 095°14'1 2.0
2017-Nov-11 00:26N 29°44' W 095°13'1 2.8
2017-Nov-11 00:00N 29°44' W 095°12'1 2.7
2017-Nov-10 23:29N 29°45' W 095°11'1 2.6
2017-Nov-10 23:00N 29°44' W 095°09'2 2.7
2017-Nov-10 22:23N 29°44' W 095°07'1 2.8
2017-Nov-10 21:58N 29°45' W 095°06'1 0.9
2017-Nov-10 21:05N 29°45' W 095°06'0 0.0
2017-Nov-10 19:07N 29°45' W 095°06'1 0.1
2017-Nov-10 14:37N 29°46' W 095°05'0 0.1
2017-Nov-10 07:30N 29°46' W 095°06'0 0.8
2017-Nov-10 07:00N 29°45' W 095°06'1 1.8
2017-Nov-10 06:23N 29°46' W 095°07'0 0.7
2017-Nov-10 05:53N 29°46' W 095°07'0 0.3
2017-Nov-10 05:30N 29°46' W 095°07'1 2.5
2017-Nov-10 05:00N 29°45' W 095°06'1 0.7
2017-Nov-10 03:13N 29°46' W 095°07'0 0.0
2017-Nov-09 06:12N 29°46' W 095°07'1 2.6
2017-Nov-09 05:57N 29°46' W 095°06'2 3.6
2017-Nov-09 05:30N 29°46' W 095°04'0 0.2
2017-Nov-09 04:54N 29°46' W 095°04'2 4.6
2017-Nov-09 04:22N 29°46' W 095°07'0 0.5
2017-Nov-09 03:55N 29°46' W 095°07'1 0.3
2017-Nov-08 23:18N 29°46' W 095°05'1 3.1
2017-Nov-08 22:58N 29°46' W 095°04'0 0.6
2017-Nov-08 22:25N 29°46' W 095°05'1 0.1
2017-Nov-08 15:21N 29°46' W 095°06'0 0.1
2017-Nov-08 11:05N 29°46' W 095°06'0 0.3
2017-Nov-08 10:57N 29°46' W 095°06'0 0.0
2017-Nov-08 01:16N 29°46' W 095°06'0 0.7
2017-Nov-08 00:52N 29°46' W 095°05'0 0.1
2017-Nov-08 00:30N 29°46' W 095°05'1 0.6
2017-Nov-07 23:39N 29°45' W 095°06'  
Track history (hours):
 
Tides and Currents Weather Stations Pressure Air Temp Water Temp Dewpoint Dewpoint Depression Visibility Wind Speed Wind Dir Waves Ship Positions

Atlas

Owner: Kirby Inland Marine LP, Houston, TX. More information available from US FCC via Universal Licensing System and Coast Guard Vessel Documentation Center.

Last reported at 2017-Nov-17 18:10 UTC. Time now 2017-Nov-17 20:50 UTC.
Position N 29°44' W 095°07'.

Length 119 m; draft 3.2 m.

Type: . MMSI: 366995460.

Date/timePositionNaut miles runAvg speedWind from/ knotsBaromVisibWave heightAir tempDewpointWater temp
2017-Nov-17 18:10N 29°44' W 095°07'1 3.4
2017-Nov-17 17:44N 29°44' W 095°08'1 3.6
2017-Nov-17 17:30N 29°44' W 095°09'2 3.3
2017-Nov-17 16:58N 29°45' W 095°11'3 2.0
2017-Nov-17 15:22N 29°43' W 095°14'0 0.0
2017-Nov-17 14:59N 29°43' W 095°14'0 0.0
2017-Nov-17 14:30N 29°43' W 095°14'0 0.0
2017-Nov-17 14:00N 29°43' W 095°14'0 0.0
2017-Nov-17 13:30N 29°43' W 095°14'0 0.0
2017-Nov-17 13:00N 29°43' W 095°14'0 0.0
2017-Nov-17 12:30N 29°43' W 095°14'0 0.0
2017-Nov-17 12:00N 29°43' W 095°14'0 0.0
2017-Nov-17 11:30N 29°43' W 095°14'0 0.0
2017-Nov-17 11:00N 29°43' W 095°14'0 0.0
2017-Nov-17 10:30N 29°43' W 095°14'0 0.0
2017-Nov-17 10:00N 29°43' W 095°14'0 0.0
2017-Nov-17 09:24N 29°43' W 095°14'0 0.0
2017-Nov-17 08:55N 29°43' W 095°14'0 0.0
2017-Nov-17 08:25N 29°43' W 095°14'0 0.0
2017-Nov-17 07:59N 29°43' W 095°14'0 0.0
2017-Nov-17 07:29N 29°43' W 095°14'0 0.0
2017-Nov-17 07:00N 29°43' W 095°14'0 0.0
2017-Nov-17 06:30N 29°43' W 095°14'0 0.0
2017-Nov-17 05:59N 29°43' W 095°14'0 0.0
2017-Nov-17 05:30N 29°43' W 095°14'0 0.0
2017-Nov-17 04:59N 29°43' W 095°14'0 0.0
2017-Nov-17 04:30N 29°43' W 095°14'0 0.0
2017-Nov-17 04:00N 29°43' W 095°14'0 0.0
2017-Nov-17 03:30N 29°43' W 095°14'0 0.0
2017-Nov-17 03:00N 29°43' W 095°14'0 0.0
2017-Nov-17 02:29N 29°43' W 095°14'0 0.0
2017-Nov-17 01:15N 29°43' W 095°14'0 0.0
2017-Nov-17 00:58N 29°43' W 095°14'0 0.0
2017-Nov-17 00:30N 29°43' W 095°14'0 0.0
2017-Nov-17 00:00N 29°43' W 095°14'0 0.0
2017-Nov-16 23:30N 29°43' W 095°14'0 0.0
2017-Nov-16 23:00N 29°43' W 095°14'1 1.7
2017-Nov-16 22:27N 29°44' W 095°13'1 2.9
2017-Nov-16 22:00N 29°44' W 095°12'2 2.9
2017-Nov-16 21:28N 29°45' W 095°10'1 3.1
2017-Nov-16 21:00N 29°44' W 095°09'2 3.2
2017-Nov-16 20:27N 29°44' W 095°07'2 3.2
2017-Nov-16 19:58N 29°45' W 095°06'0 0.3
2017-Nov-16 19:20N 29°46' W 095°06'0 0.0
2017-Nov-16 15:23N 29°46' W 095°06'1 2.0
2017-Nov-16 14:42N 29°44' W 095°07'1 3.7
2017-Nov-16 14:26N 29°44' W 095°08'2 3.6
2017-Nov-16 13:54N 29°45' W 095°10'1 3.4
2017-Nov-16 13:30N 29°45' W 095°11'2 3.5
2017-Nov-16 12:57N 29°43' W 095°13'1 2.7
2017-Nov-16 12:28N 29°43' W 095°14'0 0.2
2017-Nov-16 12:00N 29°43' W 095°14'0 0.0
2017-Nov-16 11:28N 29°43' W 095°14'0 0.0
2017-Nov-16 11:00N 29°43' W 095°14'0 0.1
2017-Nov-16 10:30N 29°43' W 095°14'1 2.1
2017-Nov-16 10:00N 29°43' W 095°13'2 3.0
2017-Nov-16 09:28N 29°45' W 095°12'1 3.0
2017-Nov-16 09:00N 29°45' W 095°10'2 3.1
2017-Nov-16 08:28N 29°44' W 095°09'2 3.1
2017-Nov-16 07:59N 29°44' W 095°07'1 3.1
2017-Nov-16 07:31N 29°45' W 095°06'0 0.1
2017-Nov-16 06:55N 29°45' W 095°06'0 0.0
2017-Nov-15 06:50N 29°45' W 095°06'0 0.0
2017-Nov-15 05:05N 29°45' W 095°06'0 0.0
2017-Nov-15 04:56N 29°45' W 095°06'0 0.0
2017-Nov-15 04:24N 29°45' W 095°06'0 0.0
2017-Nov-15 03:58N 29°45' W 095°06'0 0.0
2017-Nov-15 03:28N 29°45' W 095°06'0 0.0
2017-Nov-15 02:58N 29°45' W 095°06'0 0.0
2017-Nov-15 02:26N 29°45' W 095°06'0 0.0
2017-Nov-14 23:54N 29°45' W 095°06'0 0.0
2017-Nov-14 23:31N 29°45' W 095°06'0 0.1
2017-Nov-14 22:56N 29°46' W 095°06'0 0.0
2017-Nov-14 21:02N 29°45' W 095°06'0 0.1
2017-Nov-14 20:49N 29°45' W 095°06'0 1.3
2017-Nov-14 20:27N 29°46' W 095°05'0 0.1
2017-Nov-14 18:58N 29°46' W 095°05'0 0.8
2017-Nov-14 18:24N 29°45' W 095°06'0 0.0
2017-Nov-14 18:00N 29°45' W 095°06'0 0.0
2017-Nov-13 22:20N 29°45' W 095°06'1 0.1
2017-Nov-13 02:00N 29°46' W 095°07'0 0.0
2017-Nov-13 01:28N 29°46' W 095°07'0 0.0
2017-Nov-13 00:51N 29°46' W 095°07'0 0.0
2017-Nov-13 00:29N 29°46' W 095°07'0 0.0
2017-Nov-12 23:07N 29°46' W 095°07'0 0.0
2017-Nov-12 22:57N 29°46' W 095°07'0 0.0
2017-Nov-12 21:06N 29°46' W 095°07'0 1.2
2017-Nov-12 20:57N 29°46' W 095°07'1 2.2
2017-Nov-12 20:30N 29°45' W 095°06'1 1.6
2017-Nov-12 19:47N 29°46' W 095°07'1 1.6
2017-Nov-12 19:17N 29°46' W 095°06'0 1.0
2017-Nov-12 18:53N 29°45' W 095°06'0 0.0
2017-Nov-12 16:40N 29°45' W 095°06'0 0.0
2017-Nov-12 16:27N 29°45' W 095°06'0 0.0
2017-Nov-12 15:46N 29°45' W 095°06'0 0.0
2017-Nov-12 15:27N 29°45' W 095°06'0 0.0
2017-Nov-12 14:56N 29°45' W 095°06'0 0.0
2017-Nov-12 14:29N 29°45' W 095°06'0 0.0
2017-Nov-12 14:00N 29°45' W 095°06'0 0.0
2017-Nov-12 12:45N 29°45' W 095°06'0 0.0
2017-Nov-12 12:30N 29°45' W 095°06'0 0.0
2017-Nov-12 11:37N 29°45' W 095°06'0 0.0
2017-Nov-12 11:27N 29°45' W 095°06'0 0.0
2017-Nov-12 10:59N 29°45' W 095°06'0 0.0
2017-Nov-12 10:30N 29°45' W 095°06'0 0.0
2017-Nov-12 09:47N 29°45' W 095°06'0 0.0
2017-Nov-12 09:27N 29°45' W 095°06'0 0.0
2017-Nov-12 09:00N 29°45' W 095°06'0 0.0
2017-Nov-12 08:21N 29°45' W 095°06'0 0.0
2017-Nov-12 07:43N 29°45' W 095°06'0 0.0
2017-Nov-12 07:30N 29°45' W 095°06'0 0.0
2017-Nov-12 07:00N 29°45' W 095°06'0 0.0
2017-Nov-12 06:31N 29°45' W 095°06'0 0.0
2017-Nov-12 05:59N 29°45' W 095°06'0 0.0
2017-Nov-12 05:30N 29°45' W 095°06'0 0.0
2017-Nov-12 04:59N 29°45' W 095°06'0 0.0
2017-Nov-12 04:30N 29°45' W 095°06'0 0.0
2017-Nov-12 04:00N 29°45' W 095°06'0 0.0
2017-Nov-12 03:30N 29°45' W 095°06'0 0.1
2017-Nov-12 03:00N 29°45' W 095°06'2 4.0
2017-Nov-12 02:30N 29°44' W 095°07'3 5.3
2017-Nov-12 01:59N 29°45' W 095°10'3 5.1
2017-Nov-12 01:28N 29°43' W 095°13'1 2.0
2017-Nov-12 00:54N 29°43' W 095°14'0 0.1
2017-Nov-12 00:30N 29°43' W 095°14'0 0.0
2017-Nov-12 00:00N 29°43' W 095°14'0 0.0
2017-Nov-11 23:30N 29°43' W 095°14'0 0.0
2017-Nov-11 23:01N 29°43' W 095°14'0 0.0
2017-Nov-11 22:30N 29°43' W 095°14'0 0.0
2017-Nov-11 22:00N 29°43' W 095°14'0 0.0
2017-Nov-11 21:30N 29°43' W 095°14'0 0.0
2017-Nov-11 21:00N 29°43' W 095°14'0 0.0
2017-Nov-11 20:30N 29°43' W 095°14'0 0.0
2017-Nov-11 20:01N 29°43' W 095°14'0 0.0
2017-Nov-11 19:30N 29°43' W 095°14'0 0.0
2017-Nov-11 18:59N 29°43' W 095°14'0 0.0
2017-Nov-11 18:30N 29°43' W 095°14'0 0.0
2017-Nov-11 18:00N 29°43' W 095°14'0 0.0
2017-Nov-11 17:30N 29°43' W 095°14'0 0.0
2017-Nov-11 17:00N 29°43' W 095°14'0 0.0
2017-Nov-11 16:30N 29°43' W 095°14'0 0.0
2017-Nov-11 16:01N 29°43' W 095°14'0 0.0
2017-Nov-11 15:30N 29°43' W 095°14'0 0.0
2017-Nov-11 15:00N 29°43' W 095°14'0 0.0
2017-Nov-11 14:29N 29°43' W 095°14'0 0.0
2017-Nov-11 14:00N 29°43' W 095°14'0 0.0
2017-Nov-11 13:30N 29°43' W 095°14'0 0.0
2017-Nov-11 13:00N 29°43' W 095°14'0 0.0
2017-Nov-11 12:30N 29°43' W 095°14'0 0.0
2017-Nov-11 12:00N 29°43' W 095°14'0 0.0
2017-Nov-11 11:30N 29°43' W 095°14'0 0.0
2017-Nov-11 11:00N 29°43' W 095°14'0 0.0
2017-Nov-11 10:30N 29°43' W 095°14'0 0.0
2017-Nov-11 10:00N 29°43' W 095°14'0 0.1
2017-Nov-11 09:30N 29°43' W 095°14'0 0.0
2017-Nov-11 09:00N 29°43' W 095°14'0 0.0
2017-Nov-11 08:30N 29°43' W 095°14'0 0.0
2017-Nov-11 08:00N 29°43' W 095°14'0 0.0
2017-Nov-11 07:31N 29°43' W 095°14'0 0.0
2017-Nov-11 07:00N 29°43' W 095°14'0 0.0
2017-Nov-11 06:30N 29°43' W 095°14'0 0.0
2017-Nov-11 05:58N 29°43' W 095°14'0 0.0
2017-Nov-11 05:30N 29°43' W 095°14'0 0.0
2017-Nov-11 05:00N 29°43' W 095°14'0 0.0
2017-Nov-11 04:30N 29°43' W 095°14'0 0.0
2017-Nov-11 03:57N 29°43' W 095°14'0 0.0
2017-Nov-11 03:30N 29°43' W 095°14'0 0.0
2017-Nov-11 02:56N 29°43' W 095°14'0 0.0
2017-Nov-11 02:30N 29°43' W 095°14'0 0.0
2017-Nov-11 02:00N 29°43' W 095°14'0 0.0
2017-Nov-11 01:29N 29°43' W 095°14'0 0.0
2017-Nov-11 00:59N 29°43' W 095°14'1 2.0
2017-Nov-11 00:26N 29°44' W 095°13'1 2.8
2017-Nov-11 00:00N 29°44' W 095°12'1 2.7
2017-Nov-10 23:29N 29°45' W 095°11'1 2.6
2017-Nov-10 23:00N 29°44' W 095°09'2 2.7
2017-Nov-10 22:23N 29°44' W 095°07'1 2.8
2017-Nov-10 21:58N 29°45' W 095°06'1 0.9
2017-Nov-10 21:05N 29°45' W 095°06'0 0.0
2017-Nov-10 19:07N 29°45' W 095°06'1 0.1
2017-Nov-10 14:37N 29°46' W 095°05'0 0.1
2017-Nov-10 07:30N 29°46' W 095°06'0 0.8
2017-Nov-10 07:00N 29°45' W 095°06'1 1.8
2017-Nov-10 06:23N 29°46' W 095°07'0 0.7
2017-Nov-10 05:53N 29°46' W 095°07'0 0.3
2017-Nov-10 05:30N 29°46' W 095°07'1 2.5
2017-Nov-10 05:00N 29°45' W 095°06'1 0.7
2017-Nov-10 03:13N 29°46' W 095°07'0 0.0
2017-Nov-09 06:12N 29°46' W 095°07'1 2.6
2017-Nov-09 05:57N 29°46' W 095°06'2 3.6
2017-Nov-09 05:30N 29°46' W 095°04'0 0.2
2017-Nov-09 04:54N 29°46' W 095°04'2 4.6
2017-Nov-09 04:22N 29°46' W 095°07'0 0.5
2017-Nov-09 03:55N 29°46' W 095°07'1 0.3
2017-Nov-08 23:18N 29°46' W 095°05'1 3.1
2017-Nov-08 22:58N 29°46' W 095°04'0 0.6
2017-Nov-08 22:25N 29°46' W 095°05'1 0.1
2017-Nov-08 15:21N 29°46' W 095°06'0 0.1
2017-Nov-08 11:05N 29°46' W 095°06'0 0.3
2017-Nov-08 10:57N 29°46' W 095°06'0 0.0
2017-Nov-08 01:16N 29°46' W 095°06'0 0.7
2017-Nov-08 00:52N 29°46' W 095°05'0 0.1
2017-Nov-08 00:30N 29°46' W 095°05'1 0.6
2017-Nov-07 23:39N 29°45' W 095°06'  

Dump ship's entire track history